createdAt,value
2018-12-12T00:00:58.304Z,4.23
2018-12-12T00:03:26.336Z,4.17
2018-12-12T00:05:54.569Z,2.57
2018-12-12T00:08:22.603Z,2.53
2018-12-12T00:10:52.276Z,3.47
2018-12-12T00:13:19.995Z,3.20
2018-12-12T00:15:47.993Z,1.23
2018-12-12T00:18:16.321Z,3.63
2018-12-12T00:20:44.201Z,1.77
2018-12-12T00:23:11.816Z,2.47
2018-12-12T00:25:40.605Z,2.93
2018-12-12T00:28:08.293Z,4.43
2018-12-12T00:30:35.994Z,2.80
2018-12-12T00:33:03.923Z,3.33
2018-12-12T00:35:31.774Z,5.77
2018-12-12T00:37:59.605Z,5.53
2018-12-12T00:40:27.527Z,3.40
2018-12-12T00:42:56.582Z,4.30
2018-12-12T00:45:24.926Z,4.50
2018-12-12T00:47:53.156Z,3.93
2018-12-12T00:50:21.092Z,3.67
2018-12-12T00:52:48.914Z,4.07
2018-12-12T00:55:16.841Z,2.10
2018-12-12T00:57:44.903Z,2.13
2018-12-12T01:00:13.016Z,2.57
2018-12-12T01:02:40.757Z,2.30
2018-12-12T01:05:08.489Z,1.10
2018-12-12T01:07:36.187Z,3.60
2018-12-12T01:10:05.979Z,2.43
2018-12-12T01:12:33.739Z,3.60
2018-12-12T01:15:01.423Z,2.10
2018-12-12T01:17:29.861Z,2.97
2018-12-12T01:19:57.583Z,1.90
2018-12-12T01:22:26.544Z,4.10
2018-12-12T01:24:54.360Z,1.67
2018-12-12T01:27:23.113Z,2.40
2018-12-12T01:29:50.845Z,1.27
2018-12-12T01:32:18.781Z,2.70
2018-12-12T01:34:46.921Z,3.17
2018-12-12T01:37:14.953Z,3.50
2018-12-12T01:39:42.566Z,4.23
2018-12-12T01:42:10.512Z,4.40
2018-12-12T01:44:38.838Z,1.67
2018-12-12T01:47:06.585Z,3.07
2018-12-12T01:49:34.405Z,3.43
2018-12-12T01:52:02.237Z,3.33
2018-12-12T01:54:30.182Z,2.53
2018-12-12T01:56:58.207Z,2.87
2018-12-12T01:59:26.137Z,4.33
2018-12-12T02:01:53.977Z,3.33
2018-12-12T02:04:21.697Z,3.43
2018-12-12T02:06:49.580Z,3.87
2018-12-12T02:09:17.656Z,3.23
2018-12-12T02:11:45.483Z,3.47
2018-12-12T02:14:14.123Z,3.77
2018-12-12T02:16:41.845Z,3.47
2018-12-12T02:19:09.685Z,3.30
2018-12-12T02:21:37.500Z,3.47
2018-12-12T02:24:05.230Z,1.27
2018-12-12T02:26:32.918Z,5.40
2018-12-12T02:29:00.682Z,3.43
2018-12-12T02:31:28.726Z,5.43
2018-12-12T02:33:57.082Z,4.10
2018-12-12T02:36:25.024Z,4.00
2018-12-12T02:38:52.842Z,3.33
2018-12-12T02:41:20.780Z,4.20
2018-12-12T02:43:48.530Z,3.07
2018-12-12T02:46:16.747Z,5.20
2018-12-12T02:48:44.683Z,2.43
2018-12-12T02:51:12.625Z,2.83
2018-12-12T02:53:41.069Z,4.93
2018-12-12T02:56:10.020Z,4.93
2018-12-12T02:58:37.754Z,4.13
2018-12-12T03:01:05.446Z,4.10
2018-12-12T03:03:33.115Z,5.40
2018-12-12T03:06:00.837Z,4.20
2018-12-12T03:08:29.183Z,3.90
2018-12-12T03:10:57.010Z,4.00
2018-12-12T03:13:25.966Z,2.17
2018-12-12T03:15:53.905Z,5.10
2018-12-12T03:18:21.651Z,2.43
2018-12-12T03:20:49.466Z,5.27
2018-12-12T03:23:17.405Z,5.97
2018-12-12T03:25:45.236Z,4.67
2018-12-12T03:28:14.377Z,4.27
2018-12-12T03:30:42.241Z,4.70
2018-12-12T03:33:09.944Z,5.50
2018-12-12T03:35:37.715Z,3.13
2018-12-12T03:38:05.517Z,4.83
2018-12-12T03:40:34.745Z,3.83
2018-12-12T03:43:02.600Z,3.93
2018-12-12T03:45:31.147Z,5.50
2018-12-12T03:47:58.864Z,4.37
2018-12-12T03:50:26.518Z,4.67
2018-12-12T03:52:54.435Z,5.33
2018-12-12T03:55:22.348Z,4.23
2018-12-12T03:57:50.372Z,5.40
2018-12-12T04:00:19.122Z,4.87
2018-12-12T04:02:47.160Z,4.90
2018-12-12T04:05:15.082Z,3.37
2018-12-12T04:07:43.016Z,3.77
2018-12-12T04:10:12.578Z,6.50
2018-12-12T04:12:40.622Z,5.47
2018-12-12T04:15:08.450Z,5.13
2018-12-12T04:17:36.374Z,4.50
2018-12-12T04:20:05.513Z,4.03
2018-12-12T04:22:33.883Z,4.83
2018-12-12T04:25:02.722Z,5.23
2018-12-12T04:27:30.660Z,4.90
2018-12-12T04:29:58.579Z,3.77
2018-12-12T04:32:26.917Z,6.37
2018-12-12T04:34:55.253Z,5.60
2018-12-12T04:37:23.103Z,5.17
2018-12-12T04:39:50.915Z,4.43
2018-12-12T04:42:19.664Z,4.67
2018-12-12T04:44:47.499Z,4.37
2018-12-12T04:47:15.142Z,5.47
2018-12-12T04:49:43.030Z,4.10
2018-12-12T04:52:10.808Z,4.30
2018-12-12T04:54:39.324Z,4.60
2018-12-12T04:57:07.133Z,4.83
2018-12-12T04:59:35.186Z,4.47
2018-12-12T05:02:02.990Z,4.70
2018-12-12T05:04:30.639Z,5.00
2018-12-12T05:06:58.285Z,4.17
2018-12-12T05:09:26.195Z,3.63
2018-12-12T05:11:53.997Z,4.57
2018-12-12T05:14:21.917Z,5.20
2018-12-12T05:16:49.954Z,4.57
2018-12-12T05:19:17.781Z,5.50
2018-12-12T05:21:45.420Z,3.53
2018-12-12T05:24:13.241Z,3.63
2018-12-12T05:26:41.062Z,3.27
2018-12-12T05:29:08.826Z,3.63
2018-12-12T05:31:36.616Z,2.63
2018-12-12T05:34:04.545Z,3.43
2018-12-12T05:36:33.517Z,3.53
2018-12-12T05:39:01.433Z,3.87
2018-12-12T05:41:29.072Z,4.80
2018-12-12T05:43:57.678Z,4.20
2018-12-12T05:46:25.835Z,4.03
2018-12-12T05:48:54.223Z,3.93
2018-12-12T05:51:22.410Z,2.93
2018-12-12T05:53:50.243Z,2.90
2018-12-12T05:56:18.016Z,4.10
2018-12-12T05:58:46.523Z,4.97
2018-12-12T06:01:14.331Z,4.00
2018-12-12T06:03:42.183Z,3.17
2018-12-12T06:06:09.794Z,4.80
2018-12-12T06:08:37.625Z,2.90
2018-12-12T06:11:05.433Z,3.27
2018-12-12T06:13:33.045Z,4.30
2018-12-12T06:16:01.404Z,3.73
2018-12-12T06:18:29.221Z,2.33
2018-12-12T06:20:56.943Z,2.80
2018-12-12T06:23:24.879Z,3.60
2018-12-12T06:25:52.599Z,3.43
2018-12-12T06:28:20.426Z,3.70
2018-12-12T06:30:48.863Z,3.97
2018-12-12T06:33:16.846Z,3.53
2018-12-12T06:35:44.832Z,3.73
2018-12-12T06:38:12.660Z,3.10
2018-12-12T06:40:40.591Z,2.73
2018-12-12T06:43:08.511Z,3.10
2018-12-12T06:45:36.442Z,3.20
2018-12-12T06:48:04.053Z,3.00
2018-12-12T06:50:31.984Z,2.33
2018-12-12T06:52:59.797Z,2.70
2018-12-12T06:55:27.752Z,2.87
2018-12-12T06:57:55.499Z,3.23
2018-12-12T07:00:23.293Z,3.60
2018-12-12T07:02:51.530Z,2.80
2018-12-12T07:05:19.356Z,2.20
2018-12-12T07:07:47.242Z,2.27
2018-12-12T07:10:16.032Z,3.90
2018-12-12T07:12:43.952Z,2.30
2018-12-12T07:15:12.095Z,1.97
2018-12-12T07:17:40.020Z,2.63
2018-12-12T07:20:07.910Z,2.63
2018-12-12T07:22:35.662Z,3.07
2018-12-12T07:25:03.489Z,3.67
2018-12-12T07:27:31.309Z,3.00
2018-12-12T07:29:59.136Z,2.70
2018-12-12T07:32:27.474Z,3.20
2018-12-12T07:34:55.402Z,2.70
2018-12-12T07:37:23.736Z,2.50
2018-12-12T07:39:51.560Z,2.60
2018-12-12T07:42:19.689Z,3.80
2018-12-12T07:44:47.526Z,3.53
2018-12-12T07:47:15.347Z,2.63
2018-12-12T07:49:44.403Z,2.67
2018-12-12T07:52:12.611Z,2.63
2018-12-12T07:54:40.890Z,3.13
2018-12-12T07:57:08.729Z,2.67
2018-12-12T07:59:36.514Z,1.87
2018-12-12T08:02:04.170Z,3.37
2018-12-12T08:04:32.070Z,2.70
2018-12-12T08:06:59.678Z,1.97
2018-12-12T08:09:27.917Z,2.40
2018-12-12T08:11:55.639Z,2.20
2018-12-12T08:14:23.462Z,2.67
2018-12-12T08:16:51.802Z,3.10
2018-12-12T08:19:19.729Z,2.63
2018-12-12T08:21:47.383Z,2.43
2018-12-12T08:24:15.284Z,2.30
2018-12-12T08:26:42.932Z,2.23
2018-12-12T08:29:10.836Z,2.80
2018-12-12T08:31:38.497Z,2.70
2018-12-12T08:34:06.540Z,2.33
2018-12-12T08:36:34.337Z,2.80
2018-12-12T08:39:02.055Z,2.90
2018-12-12T08:41:29.974Z,1.93
2018-12-12T08:43:59.092Z,2.43
2018-12-12T08:46:27.263Z,2.27
2018-12-12T08:48:55.284Z,1.90
2018-12-12T08:51:23.625Z,2.23
2018-12-12T08:53:51.557Z,2.10
2018-12-12T08:56:19.188Z,2.10
2018-12-12T08:58:47.007Z,2.17
2018-12-12T09:01:14.748Z,2.43
2018-12-12T09:03:42.556Z,1.70
2018-12-12T09:06:10.386Z,2.30
2018-12-12T09:08:38.270Z,3.20
2018-12-12T09:11:06.871Z,2.77
2018-12-12T09:13:34.632Z,2.40
2018-12-12T09:16:02.435Z,2.83
2018-12-12T09:18:30.087Z,2.23
2018-12-12T09:21:00.327Z,1.80
2018-12-12T09:23:28.766Z,1.83
2018-12-12T09:25:56.375Z,1.70
2018-12-12T09:28:24.217Z,1.97
2018-12-12T09:30:52.048Z,1.93
2018-12-12T09:33:24.587Z,2.27
2018-12-12T09:35:49.670Z,1.67
2018-12-12T09:38:17.395Z,1.77
2018-12-12T09:40:45.434Z,2.20
2018-12-12T09:43:13.276Z,2.10
2018-12-12T09:45:41.106Z,2.67
2018-12-12T09:48:09.042Z,2.33
2018-12-12T09:50:36.770Z,2.60
2018-12-12T09:53:05.731Z,2.40
2018-12-12T09:55:33.483Z,3.03
2018-12-12T09:58:01.389Z,2.07
2018-12-12T10:00:29.220Z,2.00
2018-12-12T10:02:57.034Z,2.50
2018-12-12T10:05:25.062Z,2.60
2018-12-12T10:07:52.986Z,2.67
2018-12-12T10:10:20.822Z,2.47
2018-12-12T10:12:49.511Z,2.17
2018-12-12T10:15:17.498Z,2.20
2018-12-12T10:17:45.935Z,1.40
2018-12-12T10:20:13.867Z,2.30
2018-12-12T10:22:41.694Z,2.67
2018-12-12T10:25:09.515Z,1.83
2018-12-12T10:27:37.182Z,1.67
2018-12-12T10:30:05.491Z,2.47
2018-12-12T10:32:33.916Z,1.73
2018-12-12T10:35:01.883Z,2.60
2018-12-12T10:37:29.613Z,2.10
2018-12-12T10:39:57.288Z,2.00
2018-12-12T10:42:24.897Z,2.17
2018-12-12T10:44:52.718Z,2.13
2018-12-12T10:47:20.743Z,2.03
2018-12-12T10:49:49.398Z,2.73
2018-12-12T10:52:17.346Z,2.83
2018-12-12T10:54:45.074Z,1.53
2018-12-12T10:57:12.876Z,2.20
2018-12-12T10:59:40.911Z,2.23
2018-12-12T11:02:14.170Z,1.90
2018-12-12T11:04:42.105Z,1.93
2018-12-12T11:07:10.740Z,2.17
2018-12-12T11:09:38.466Z,1.70
2018-12-12T11:12:06.604Z,2.00
2018-12-12T11:14:37.295Z,2.10
2018-12-12T11:17:05.148Z,1.90
2018-12-12T11:19:32.781Z,2.03
2018-12-12T11:22:01.632Z,1.80
2018-12-12T11:24:29.495Z,1.97
2018-12-12T11:26:57.390Z,2.20
2018-12-12T11:29:25.331Z,1.70
2018-12-12T11:31:53.188Z,2.23
2018-12-12T11:34:20.995Z,1.20
2018-12-12T11:36:48.831Z,1.50
2018-12-12T11:39:17.582Z,1.23
2018-12-12T11:41:45.914Z,1.67
2018-12-12T11:44:13.661Z,1.40
2018-12-12T11:46:41.286Z,1.30
2018-12-12T11:49:09.154Z,1.53
2018-12-12T11:51:37.066Z,1.57
2018-12-12T11:54:04.696Z,1.60
2018-12-12T11:56:32.419Z,1.50
2018-12-12T11:59:00.045Z,1.20
2018-12-12T12:01:27.981Z,1.30
2018-12-12T12:03:56.879Z,1.30
2018-12-12T12:06:25.802Z,1.00
2018-12-12T12:08:53.602Z,0.70
2018-12-12T12:11:22.704Z,0.90
2018-12-12T12:13:50.635Z,1.13
2018-12-12T12:16:18.364Z,1.00
2018-12-12T12:18:46.199Z,1.00
2018-12-12T12:21:13.954Z,1.17
2018-12-12T12:23:41.763Z,1.40
2018-12-12T12:26:10.416Z,1.00
2018-12-12T12:28:38.249Z,1.20
2018-12-12T12:31:06.198Z,1.20
2018-12-12T12:33:34.479Z,1.00
2018-12-12T12:36:02.172Z,1.20
2018-12-12T12:38:30.075Z,0.93
2018-12-12T12:40:57.904Z,1.10
2018-12-12T12:43:25.645Z,1.03
2018-12-12T12:45:53.717Z,1.00
2018-12-12T12:48:21.591Z,1.20
2018-12-12T12:50:49.401Z,1.20
2018-12-12T12:53:17.847Z,1.07
2018-12-12T12:55:45.865Z,1.20
2018-12-12T12:58:13.713Z,1.23
2018-12-12T13:00:41.540Z,1.20
2018-12-12T13:03:09.346Z,0.97
2018-12-12T13:05:37.275Z,1.17
2018-12-12T13:08:05.078Z,0.97
2018-12-12T13:10:33.583Z,1.20
2018-12-12T13:13:01.578Z,0.87
2018-12-12T13:15:29.701Z,1.30
2018-12-12T13:17:57.527Z,1.03
2018-12-12T13:20:25.417Z,1.33
2018-12-12T13:22:53.301Z,1.10
2018-12-12T13:25:21.236Z,1.00
2018-12-12T13:27:49.069Z,1.30
2018-12-12T13:30:16.975Z,1.30
2018-12-12T13:32:45.361Z,1.37
2018-12-12T13:35:15.331Z,1.17
2018-12-12T13:37:43.991Z,1.47
2018-12-12T13:40:11.930Z,1.50
2018-12-12T13:42:39.860Z,1.20
2018-12-12T13:45:08.000Z,1.20
2018-12-12T13:47:35.836Z,1.50
2018-12-12T13:50:05.160Z,1.43
2018-12-12T13:52:33.120Z,1.23
2018-12-12T13:55:01.014Z,1.33
2018-12-12T13:57:29.015Z,1.50
2018-12-12T13:59:56.952Z,1.30
2018-12-12T14:02:24.993Z,1.20
2018-12-12T14:04:52.824Z,1.00
2018-12-12T14:07:20.863Z,1.20
2018-12-12T14:09:48.802Z,1.20
2018-12-12T14:12:17.514Z,1.20
2018-12-12T14:14:45.810Z,1.10
2018-12-12T14:17:13.728Z,1.80
2018-12-12T14:19:41.543Z,1.30
2018-12-12T14:22:09.513Z,1.27
2018-12-12T14:24:37.332Z,1.03
2018-12-12T14:27:05.169Z,1.20
2018-12-12T14:29:33.109Z,1.00
2018-12-12T14:32:01.114Z,0.80
2018-12-12T14:34:29.431Z,0.90
2018-12-12T14:36:57.732Z,0.87
2018-12-12T14:39:25.621Z,0.90
2018-12-12T14:41:53.605Z,1.00
2018-12-12T14:44:24.099Z,0.73
2018-12-12T14:46:52.220Z,0.83
2018-12-12T14:49:20.279Z,0.83
2018-12-12T14:51:48.216Z,1.00
2018-12-12T14:54:16.256Z,0.80
2018-12-12T14:56:44.247Z,0.90
2018-12-12T14:59:14.056Z,1.20
2018-12-12T15:01:41.910Z,1.00
2018-12-12T15:04:09.842Z,0.83
2018-12-12T15:06:37.784Z,1.20
2018-12-12T15:09:06.781Z,1.10
2018-12-12T15:11:34.604Z,1.10
2018-12-12T15:14:03.145Z,0.90
2018-12-12T15:16:31.002Z,1.03
2018-12-12T15:18:59.533Z,0.97
2018-12-12T15:21:27.334Z,1.13
2018-12-12T15:23:55.464Z,1.00
2018-12-12T15:26:23.765Z,1.17
2018-12-12T15:28:51.946Z,0.83
2018-12-12T15:31:20.112Z,0.77
2018-12-12T15:33:48.814Z,0.70
2018-12-12T15:36:16.513Z,0.63
2018-12-12T15:38:44.511Z,0.53
2018-12-12T15:41:12.334Z,0.80
2018-12-12T15:43:40.273Z,0.70
2018-12-12T15:46:08.524Z,0.60
2018-12-12T15:48:36.456Z,0.83
2018-12-12T15:51:04.356Z,1.03
2018-12-12T15:53:33.141Z,0.97
2018-12-12T15:56:02.407Z,1.07
2018-12-12T15:58:30.630Z,0.80
2018-12-12T16:00:58.604Z,1.10
2018-12-12T16:03:26.424Z,1.17
2018-12-12T16:05:54.251Z,0.80
2018-12-12T16:08:22.909Z,0.93
2018-12-12T16:10:50.809Z,0.80
2018-12-12T16:13:20.483Z,0.80
2018-12-12T16:15:48.495Z,1.00
2018-12-12T16:18:16.392Z,1.00
2018-12-12T16:20:44.467Z,0.93
2018-12-12T16:23:14.083Z,0.73
2018-12-12T16:25:42.860Z,0.90
2018-12-12T16:28:11.502Z,1.00
2018-12-12T16:30:40.263Z,0.70
2018-12-12T16:33:07.974Z,1.13
2018-12-12T16:35:36.032Z,0.90
2018-12-12T16:38:03.960Z,0.80
2018-12-12T16:40:32.006Z,1.37
2018-12-12T16:43:00.681Z,1.00
2018-12-12T16:45:28.851Z,1.03
2018-12-12T16:47:56.729Z,1.17
2018-12-12T16:50:26.083Z,1.10
2018-12-12T16:52:53.931Z,1.20
2018-12-12T16:55:21.822Z,1.40
2018-12-12T16:57:50.220Z,1.20
2018-12-12T17:00:18.044Z,1.07
2018-12-12T17:02:45.984Z,0.90
2018-12-12T17:05:13.818Z,1.20
2018-12-12T17:07:41.751Z,1.50
2018-12-12T17:10:10.732Z,1.50
2018-12-12T17:12:38.902Z,1.00
2018-12-12T17:15:06.981Z,1.30
2018-12-12T17:17:35.088Z,1.00
2018-12-12T17:20:03.685Z,1.42
2018-12-12T17:22:32.530Z,1.45
2018-12-12T17:25:00.467Z,1.35
2018-12-12T17:27:28.496Z,2.07
2018-12-12T17:29:56.536Z,1.52
2018-12-12T17:32:25.855Z,1.30
2018-12-12T17:34:54.051Z,1.60
2018-12-12T17:37:22.188Z,1.57
2018-12-12T17:39:50.544Z,1.20
2018-12-12T17:42:18.574Z,1.22
2018-12-12T17:44:46.508Z,1.63
2018-12-12T17:47:14.232Z,1.70
2018-12-12T17:49:42.498Z,1.13
2018-12-12T17:52:10.422Z,2.12
2018-12-12T17:54:38.552Z,1.80
2018-12-12T17:57:06.292Z,1.98
2018-12-12T17:59:34.220Z,1.65
2018-12-12T18:02:02.270Z,1.47
2018-12-12T18:04:30.518Z,1.55
2018-12-12T18:07:00.075Z,1.47
2018-12-12T18:09:29.341Z,1.62
2018-12-12T18:11:57.593Z,1.45
2018-12-12T18:14:25.625Z,1.85
2018-12-12T18:16:53.458Z,1.80
2018-12-12T18:19:21.397Z,1.55
2018-12-12T18:21:49.230Z,1.42
2018-12-12T18:24:17.056Z,1.60
2018-12-12T18:26:45.935Z,1.60
2018-12-12T18:29:13.939Z,1.55
2018-12-12T18:31:41.785Z,1.32
2018-12-12T18:34:09.812Z,1.57
2018-12-12T18:36:38.586Z,1.30
2018-12-12T18:39:06.909Z,1.20
2018-12-12T18:41:35.889Z,1.00
2018-12-12T18:44:03.857Z,1.30
2018-12-12T18:46:32.686Z,1.00
2018-12-12T18:49:01.393Z,1.10
2018-12-12T18:51:29.167Z,1.10
2018-12-12T18:53:57.521Z,0.95
2018-12-12T18:56:26.376Z,1.17
2018-12-12T18:58:55.430Z,1.15
2018-12-12T19:01:23.476Z,1.10
2018-12-12T19:03:51.405Z,1.80
2018-12-12T19:06:19.137Z,1.30
2018-12-12T19:08:47.222Z,1.12
2018-12-12T19:11:15.622Z,1.20
2018-12-12T19:13:44.077Z,1.65
2018-12-12T19:16:12.485Z,1.00
2018-12-12T19:18:40.699Z,0.95
2018-12-12T19:21:08.597Z,1.10
2018-12-12T19:23:37.054Z,1.62
2018-12-12T19:26:04.751Z,1.30
2018-12-12T19:28:33.532Z,1.50
2018-12-12T19:31:01.570Z,1.40
2018-12-12T19:33:30.047Z,1.50
2018-12-12T19:35:58.048Z,1.32
2018-12-12T19:38:26.396Z,1.30
2018-12-12T19:40:54.225Z,1.70
2018-12-12T19:43:22.265Z,2.05
2018-12-12T19:45:51.226Z,1.60
2018-12-12T19:48:19.057Z,1.80
2018-12-12T19:50:46.889Z,1.07
2018-12-12T19:53:14.751Z,2.15
2018-12-12T19:55:42.870Z,1.47
2018-12-12T19:58:10.801Z,1.27
2018-12-12T20:00:38.833Z,1.37
2018-12-12T20:03:08.305Z,1.12
2018-12-12T20:05:41.487Z,1.22
2018-12-12T20:08:06.178Z,1.50
2018-12-12T20:10:34.366Z,1.60
2018-12-12T20:13:02.444Z,1.67
2018-12-12T20:15:36.050Z,1.37
2018-12-12T20:18:04.533Z,2.00
2018-12-12T20:20:32.541Z,1.42
2018-12-12T20:23:00.354Z,1.70
2018-12-12T20:25:28.433Z,1.42
2018-12-12T20:27:56.207Z,1.52
2018-12-12T20:30:23.995Z,1.45
2018-12-12T20:32:51.937Z,1.70
2018-12-12T20:35:20.303Z,1.37
2018-12-12T20:37:48.312Z,1.37
2018-12-12T20:40:16.256Z,1.40
2018-12-12T20:42:44.397Z,2.05
2018-12-12T20:45:12.122Z,1.60
2018-12-12T20:47:40.054Z,1.30
2018-12-12T20:50:08.114Z,2.17
2018-12-12T20:52:35.985Z,1.75
2018-12-12T20:55:04.149Z,1.72
2018-12-12T20:57:32.002Z,1.37
2018-12-12T20:59:59.947Z,1.32
2018-12-12T21:02:27.866Z,1.27
2018-12-12T21:04:55.908Z,1.85
2018-12-12T21:07:23.846Z,1.35
2018-12-12T21:09:51.876Z,1.55
2018-12-12T21:12:20.018Z,1.52
2018-12-12T21:14:47.961Z,1.72
2018-12-12T21:17:16.305Z,1.85
2018-12-12T21:19:44.240Z,1.92
2018-12-12T21:22:12.139Z,2.02
2018-12-12T21:24:40.919Z,1.45
2018-12-12T21:27:08.651Z,1.82
2018-12-12T21:29:36.589Z,1.52
2018-12-12T21:32:05.247Z,1.50
2018-12-12T21:34:34.050Z,1.75
2018-12-12T21:37:01.933Z,1.05
2018-12-12T21:39:29.938Z,2.05
2018-12-12T21:41:57.903Z,1.62
2018-12-12T21:44:25.786Z,1.42
2018-12-12T21:46:53.777Z,1.87
2018-12-12T21:49:21.608Z,1.45
2018-12-12T21:51:50.058Z,1.95
2018-12-12T21:54:17.992Z,1.70
2018-12-12T21:56:45.723Z,1.50
2018-12-12T21:59:13.660Z,1.82
2018-12-12T22:01:41.493Z,2.22
2018-12-12T22:04:09.764Z,1.62
2018-12-12T22:06:37.754Z,2.22
2018-12-12T22:09:07.810Z,1.85
2018-12-12T22:11:36.726Z,2.33
2018-12-12T22:14:04.606Z,1.87
2018-12-12T22:16:32.550Z,1.57
2018-12-12T22:19:00.614Z,1.90
2018-12-12T22:21:28.547Z,1.50
2018-12-12T22:23:56.365Z,1.55
2018-12-12T22:26:25.718Z,1.82
2018-12-12T22:28:54.526Z,1.52
2018-12-12T22:31:22.580Z,2.40
2018-12-12T22:33:50.673Z,2.40
2018-12-12T22:36:18.787Z,2.85
2018-12-12T22:38:46.686Z,1.87
2018-12-12T22:41:14.572Z,1.70
2018-12-12T22:43:42.531Z,1.37
2018-12-12T22:46:10.449Z,2.10
2018-12-12T22:48:38.446Z,1.30
2018-12-12T22:51:06.370Z,2.30
2018-12-12T22:53:34.040Z,2.08
2018-12-12T22:56:01.897Z,1.47
2018-12-12T22:58:29.660Z,1.85
2018-12-12T23:01:10.245Z,2.77
2018-12-12T23:03:38.324Z,1.77
2018-12-12T23:06:06.105Z,1.87
2018-12-12T23:08:33.792Z,2.10
2018-12-12T23:11:01.761Z,2.37
2018-12-12T23:13:29.885Z,1.92
2018-12-12T23:15:57.928Z,1.67
2018-12-12T23:18:25.760Z,1.70
2018-12-12T23:20:53.740Z,1.72
2018-12-12T23:23:21.513Z,1.95
2018-12-12T23:25:49.439Z,1.55
2018-12-12T23:28:17.532Z,1.77
2018-12-12T23:30:45.716Z,1.80
2018-12-12T23:33:13.724Z,2.50
2018-12-12T23:35:41.674Z,1.90
2018-12-12T23:38:09.602Z,1.50
2018-12-12T23:40:37.538Z,1.75
2018-12-12T23:43:05.754Z,1.35
2018-12-12T23:45:33.475Z,2.05
2018-12-12T23:48:01.316Z,2.62
2018-12-12T23:50:29.038Z,1.80
2018-12-12T23:52:57.084Z,1.37
2018-12-12T23:55:25.078Z,1.47
2018-12-12T23:57:52.830Z,1.98
